createdAt,value
2023-01-23T00:00:35.154Z,13.68
2023-01-23T00:05:36.676Z,11.48
2023-01-23T00:10:38.756Z,12.35
2023-01-23T00:15:40.365Z,13.30
2023-01-23T00:20:42.577Z,12.52
2023-01-23T00:25:44.111Z,12.88
2023-01-23T00:30:45.670Z,12.15
2023-01-23T00:35:47.337Z,13.15
2023-01-23T00:40:48.887Z,12.88
2023-01-23T00:45:50.781Z,11.88
2023-01-23T00:50:53.079Z,13.77
2023-01-23T00:55:57.910Z,12.57
2023-01-23T01:00:59.513Z,13.63
2023-01-23T01:06:01.216Z,13.18
2023-01-23T01:11:03.889Z,12.55
2023-01-23T01:16:06.645Z,13.45
2023-01-23T01:21:12.311Z,14.25
2023-01-23T01:26:14.005Z,12.40
2023-01-23T01:31:17.820Z,12.82
2023-01-23T01:36:22.285Z,13.88
2023-01-23T01:41:23.888Z,12.50
2023-01-23T01:46:27.908Z,11.73
2023-01-23T01:51:53.360Z,13.80
2023-01-23T01:57:13.836Z,12.43
2023-01-23T02:02:20.939Z,12.95
2023-01-23T02:07:33.606Z,10.00
2023-01-23T02:12:35.785Z,12.43
2023-01-23T02:17:37.928Z,12.15
2023-01-23T02:22:48.482Z,12.70
2023-01-23T02:27:50.359Z,13.68
2023-01-23T02:32:52.013Z,13.23
2023-01-23T02:38:02.023Z,11.82
2023-01-23T02:43:11.252Z,12.70
2023-01-23T02:48:17.716Z,13.23
2023-01-23T02:53:19.392Z,12.27
2023-01-23T02:58:21.160Z,12.63
2023-01-23T03:03:24.229Z,11.93
2023-01-23T03:08:25.792Z,11.60
2023-01-23T03:13:27.406Z,13.18
2023-01-23T03:18:29.238Z,13.25
2023-01-23T03:23:31.117Z,12.40
2023-01-23T03:28:32.907Z,12.32
2023-01-23T03:33:34.548Z,12.10
2023-01-23T03:38:36.696Z,12.88
2023-01-23T03:43:41.227Z,12.57
2023-01-23T03:48:43.050Z,13.02
2023-01-23T03:53:44.739Z,13.25
2023-01-23T03:58:47.086Z,12.82
2023-01-23T04:03:49.811Z,13.75
2023-01-23T04:08:51.550Z,13.25
2023-01-23T04:13:54.578Z,11.63
2023-01-23T04:18:58.213Z,13.20
2023-01-23T04:24:01.157Z,13.13
2023-01-23T04:29:03.036Z,13.85
2023-01-23T04:34:04.804Z,13.25
2023-01-23T04:39:06.809Z,12.60
2023-01-23T04:44:10.202Z,13.82
2023-01-23T04:49:12.137Z,12.68
2023-01-23T04:54:14.191Z,12.25
2023-01-23T04:59:17.529Z,13.38
2023-01-23T05:04:19.955Z,12.57
2023-01-23T05:09:22.868Z,12.65
2023-01-23T05:14:27.452Z,13.80
2023-01-23T05:19:30.161Z,13.98
2023-01-23T05:24:35.396Z,14.38
2023-01-23T05:29:39.781Z,15.38
2023-01-23T05:34:47.838Z,13.88
2023-01-23T05:39:56.857Z,15.05
2023-01-23T05:45:00.254Z,15.93
2023-01-23T05:50:07.339Z,15.30
2023-01-23T05:55:11.655Z,14.48
2023-01-23T06:00:15.755Z,14.95
2023-01-23T06:05:22.302Z,15.02
2023-01-23T06:10:37.779Z,16.05
2023-01-23T06:15:39.391Z,15.50
2023-01-23T06:20:45.763Z,14.00
2023-01-23T06:25:47.749Z,16.58
2023-01-23T06:30:49.626Z,14.63
2023-01-23T06:36:05.119Z,15.38
2023-01-23T06:41:08.872Z,14.02
2023-01-23T06:46:12.908Z,14.80
2023-01-23T06:51:14.711Z,14.35
2023-01-23T06:56:19.279Z,13.77
2023-01-23T07:01:22.344Z,13.00
2023-01-23T07:06:51.757Z,15.05
2023-01-23T07:11:54.897Z,13.27
2023-01-23T07:16:56.566Z,15.40
2023-01-23T07:21:59.601Z,12.52
2023-01-23T07:27:01.556Z,11.52
2023-01-23T07:32:03.181Z,11.70
2023-01-23T07:37:05.104Z,10.35
2023-01-23T07:42:06.720Z,11.20
2023-01-23T07:47:08.276Z,11.52
2023-01-23T07:52:09.913Z,10.55
2023-01-23T07:57:11.451Z,10.98
2023-01-23T08:02:13.235Z,10.43
2023-01-23T08:07:14.802Z,10.77
2023-01-23T08:12:16.427Z,11.07
2023-01-23T08:17:18.157Z,9.65
2023-01-23T08:22:19.723Z,10.27
2023-01-23T08:27:21.747Z,10.43
2023-01-23T08:32:23.369Z,10.95
2023-01-23T08:37:25.186Z,9.65
2023-01-23T08:42:26.784Z,10.90
2023-01-23T08:47:28.378Z,11.82
2023-01-23T08:52:30.182Z,11.48
2023-01-23T08:57:31.834Z,11.43
2023-01-23T09:02:33.571Z,11.20
2023-01-23T09:07:35.237Z,9.65
2023-01-23T09:12:36.803Z,9.23
2023-01-23T09:17:38.430Z,10.00
2023-01-23T09:22:40.010Z,9.07
2023-01-23T09:27:41.679Z,9.70
2023-01-23T09:32:43.369Z,9.60
2023-01-23T09:37:44.885Z,10.57
2023-01-23T09:42:46.780Z,8.77
2023-01-23T09:47:53.284Z,9.95
2023-01-23T09:53:17.236Z,8.43
2023-01-23T09:58:24.737Z,8.48
2023-01-23T10:03:31.688Z,9.63
2023-01-23T10:08:48.340Z,8.50
2023-01-23T10:14:24.213Z,8.30
2023-01-23T10:20:02.797Z,8.35
2023-01-23T10:25:25.391Z,8.55
2023-01-23T10:30:34.660Z,8.90
2023-01-23T10:35:44.614Z,8.52
2023-01-23T10:40:48.127Z,7.20
2023-01-23T10:45:50.304Z,7.20
2023-01-23T10:50:51.985Z,7.70
2023-01-23T10:55:57.659Z,8.13
2023-01-23T11:01:00.127Z,6.50
2023-01-23T11:06:16.533Z,6.55
2023-01-23T11:11:22.238Z,4.88
2023-01-23T11:16:24.013Z,6.18
2023-01-23T11:21:32.555Z,5.15
2023-01-23T11:26:36.576Z,6.13
2023-01-23T11:31:39.951Z,5.47
2023-01-23T11:36:45.452Z,4.40
2023-01-23T11:41:47.543Z,4.57
2023-01-23T11:47:13.646Z,4.03
2023-01-23T11:52:41.593Z,4.07
2023-01-23T11:58:20.989Z,4.15
2023-01-23T12:03:47.900Z,3.25
2023-01-23T12:09:11.250Z,3.63
2023-01-23T12:14:30.885Z,3.92
2023-01-23T12:19:32.468Z,3.65
2023-01-23T12:25:14.645Z,3.67
2023-01-23T12:30:42.930Z,3.83
2023-01-23T12:35:56.522Z,3.05
2023-01-23T12:41:17.065Z,4.10
2023-01-23T12:46:25.841Z,2.97
2023-01-23T12:51:37.227Z,3.95
2023-01-23T12:56:39.730Z,2.75
2023-01-23T13:01:53.257Z,2.95
2023-01-23T13:07:42.384Z,3.53
2023-01-23T13:12:44.477Z,3.17
2023-01-23T13:17:58.044Z,3.60
2023-01-23T13:23:18.163Z,3.25
2023-01-23T13:28:44.004Z,3.47
2023-01-23T13:33:47.192Z,3.20
2023-01-23T13:39:03.248Z,3.38
2023-01-23T13:44:24.850Z,3.40
2023-01-23T14:21:40.813Z,3.55
2023-01-23T14:26:49.707Z,3.83
2023-01-23T14:31:51.886Z,3.97
2023-01-23T14:37:12.195Z,3.90
2023-01-23T14:42:31.772Z,4.50
2023-01-23T14:47:39.417Z,3.97
2023-01-23T14:52:42.570Z,3.75
2023-01-23T14:57:44.249Z,6.07
2023-01-23T15:02:47.809Z,4.35
2023-01-23T15:07:55.527Z,5.75
2023-01-23T15:13:00.817Z,5.15
2023-01-23T15:18:05.847Z,7.25
2023-01-23T15:23:31.801Z,5.30
2023-01-23T15:28:54.133Z,7.45
2023-01-23T15:33:57.967Z,7.63
2023-01-23T15:38:59.837Z,5.90
2023-01-23T15:44:01.363Z,8.05
2023-01-23T15:49:04.267Z,6.25
2023-01-23T15:54:16.686Z,7.47
2023-01-23T15:59:19.352Z,6.90
2023-01-23T16:04:20.998Z,29.00
2023-01-23T16:09:31.459Z,14.05
2023-01-23T16:14:33.038Z,10.40
2023-01-23T16:19:34.599Z,30.48
2023-01-23T16:24:39.422Z,13.10
2023-01-23T16:29:40.997Z,21.17
2023-01-23T16:34:42.696Z,24.75
2023-01-23T16:39:46.293Z,10.88
2023-01-23T16:44:47.977Z,13.43
2023-01-23T16:49:53.016Z,10.93
2023-01-23T16:54:55.519Z,10.33
2023-01-23T16:59:58.188Z,10.40
2023-01-23T17:04:59.800Z,11.02
2023-01-23T17:10:01.397Z,11.10
2023-01-23T17:15:03.910Z,11.20
2023-01-23T17:20:06.098Z,9.77
2023-01-23T17:25:16.062Z,12.32
2023-01-23T17:30:22.939Z,13.23
2023-01-23T17:35:34.636Z,13.00
2023-01-23T17:40:36.185Z,15.65
2023-01-23T17:45:38.269Z,16.40
2023-01-23T17:50:45.051Z,12.75
2023-01-23T18:00:51.239Z,11.80
2023-01-23T18:05:53.086Z,10.60
2023-01-23T18:10:55.027Z,6.57
2023-01-23T18:16:02.544Z,7.68
2023-01-23T18:21:12.237Z,8.18
2023-01-23T18:26:28.662Z,6.82
2023-01-23T18:31:51.487Z,9.07
2023-01-23T18:37:06.537Z,7.90
2023-01-23T18:42:28.876Z,8.93
2023-01-23T18:47:31.092Z,8.80
2023-01-23T18:52:54.592Z,9.38
2023-01-23T18:58:29.277Z,7.65
2023-01-23T19:03:41.818Z,7.32
2023-01-23T19:08:43.590Z,7.22
2023-01-23T19:13:55.452Z,7.18
2023-01-23T19:19:20.536Z,8.32
2023-01-23T19:24:22.408Z,11.73
2023-01-23T19:29:24.251Z,8.50
2023-01-23T19:34:25.785Z,7.28
2023-01-23T19:39:27.347Z,7.03
2023-01-23T19:44:29.097Z,7.97
2023-01-23T19:49:30.860Z,15.13
2023-01-23T19:54:32.460Z,8.13
2023-01-23T19:59:34.016Z,6.03
2023-01-23T20:04:35.582Z,6.20
2023-01-23T20:09:37.205Z,6.97
2023-01-23T20:14:38.770Z,6.88
2023-01-23T20:19:40.334Z,6.70
2023-01-23T20:24:42.087Z,7.85
2023-01-23T20:29:43.664Z,8.25
2023-01-23T20:34:45.331Z,7.57
2023-01-23T20:39:46.917Z,7.40
2023-01-23T20:44:48.524Z,7.78
2023-01-23T20:49:50.443Z,7.82
2023-01-23T20:54:52.007Z,7.07
2023-01-23T20:59:53.633Z,6.85
2023-01-23T21:04:55.173Z,8.45
2023-01-23T21:09:56.677Z,9.13
2023-01-23T21:14:58.221Z,7.35
2023-01-23T21:19:59.786Z,7.68
2023-01-23T21:25:01.634Z,7.70
2023-01-23T21:30:03.344Z,8.05
2023-01-23T21:35:05.200Z,6.80
2023-01-23T21:40:07.798Z,7.65
2023-01-23T21:45:09.660Z,7.32
2023-01-23T21:50:11.609Z,7.60
2023-01-23T21:55:13.150Z,7.53
2023-01-23T22:00:15.113Z,7.38
2023-01-23T22:05:16.685Z,7.93
2023-01-23T22:10:18.387Z,8.40
2023-01-23T22:15:20.404Z,8.15
2023-01-23T22:20:22.203Z,7.63
2023-01-23T22:25:23.900Z,7.47
2023-01-23T22:30:25.499Z,8.30
2023-01-23T22:35:27.098Z,8.60
2023-01-23T22:40:28.724Z,8.57
2023-01-23T22:45:30.725Z,7.82
2023-01-23T22:50:32.376Z,7.50
2023-01-23T22:55:33.978Z,7.35
2023-01-23T23:00:35.543Z,7.97
2023-01-23T23:05:37.185Z,8.50
2023-01-23T23:10:38.854Z,9.27
2023-01-23T23:15:40.375Z,8.07
2023-01-23T23:20:42.016Z,7.35
2023-01-23T23:25:43.640Z,6.85
2023-01-23T23:30:45.166Z,6.38
2023-01-23T23:35:47.155Z,6.43
2023-01-23T23:41:02.881Z,6.60
2023-01-23T23:46:06.443Z,6.53
2023-01-23T23:51:10.721Z,5.93
2023-01-23T23:56:32.533Z,6.28
